Asert, OR

9:57 PM PST on March 01, 2015 (GMT -0800)
Hogan and Roberts | Change Station
CLOSE
Current Station
Personal Weather Station
Location: Gresham, OR
Elevation: 384 ft
Nearby Weather Stations

Elev 384 ft 45.49 °N, 122.42 °W | Updated 1 minute ago

Mostly Cloudy
Mostly Cloudy
47.3 °F
Feels Like 47 °F
N
3.1
Wind Variable Wind from NW
Gusts 3.6 mph

Today
High -- | Low -- °F
--% Chance of Precip.
Yesterday
High -- | Low -- °F
Precip. -- in
6:48 AM 5:56 PM
Waxing Gibbous, 89% visible
Pressure 29.98 in
Visibility 10.0 miles
Clouds Clear
Windchill 47 °F
Dew Point 22 °F
Humidity 37%
Rainfall 0.00 in
Snow Depth Not available.
UV 0 out of 12
Pollen 4.90 out of 12
Air Quality Not available.
Flu Activity Not available.
METAR KTTD 020453Z 26005KT 10SM CLR 10/M01 A2998 RMK AO2 SLP150 T01001006

More Conditions Fewer Conditions

Pressure 29.98 in
Visibility 10.0 miles
Clouds Clear
Windchill 47 °F
Dew Point 22 °F
Humidity 37%
Rainfall 0.00 in
Snow Depth Not available.
UV 0 out of 12
Pollen 4.90 out of 12
Air Quality Not available.
Flu Activity Not available.
METAR KTTD 020453Z 26005KT 10SM CLR 10/M01 A2998 RMK AO2 SLP150 T01001006

More Conditions Fewer Conditions

10-Day Weather Forecast

Almanac

Astronomy

Mar. 01, 2015 Rise Set
Actual Time
Civil Twilight
Nautical Twilight
Astronomical Twilight
Moon
Length of Visible Light
Length of Day
Tomorrow will be .
, % of the Moon is Illuminated

Today's Extremes

State Highs State Lows

Community

WunderPhotos

Upload Photos

1,801,735 photos uploaded!

WunderBlogs® & News

Nearby

Air Quality

  Air Quality AQ Index Pollutant
Not available.

Snow Depth

Station Depth Elevation

Earthquake Activity

City Distance Mag. Time & Date
Minimum magnitude displayed is 2.5.

Coastal Water Temperatures

Place Temperature

Nearby Weather Stations